createdAt,value
2019-03-08T00:01:00.302Z,99782.50
2019-03-08T00:03:08.071Z,99784.48
2019-03-08T00:05:14.337Z,99793.41
2019-03-08T00:07:20.709Z,99790.53
2019-03-08T00:09:27.070Z,99794.00
2019-03-08T00:11:33.343Z,99790.61
2019-03-08T00:13:39.591Z,99790.50
2019-03-08T00:15:45.860Z,99792.89
2019-03-08T00:17:52.117Z,99788.59
2019-03-08T00:19:59.401Z,99787.57
2019-03-08T00:22:08.621Z,99786.85
2019-03-08T00:24:14.891Z,99782.91
2019-03-08T00:26:21.133Z,99785.66
2019-03-08T00:28:27.406Z,99782.14
2019-03-08T00:30:34.176Z,99780.02
2019-03-08T00:32:40.450Z,99786.59
2019-03-08T00:34:46.800Z,99774.17
2019-03-08T00:36:53.053Z,99777.39
2019-03-08T00:38:59.347Z,99772.84
2019-03-08T00:41:05.480Z,99775.20
2019-03-08T00:43:11.724Z,99779.61
2019-03-08T00:45:19.225Z,99774.91
2019-03-08T00:47:25.507Z,99775.20
2019-03-08T00:49:32.159Z,99775.30
2019-03-08T00:51:38.425Z,99775.80
2019-03-08T00:53:44.574Z,99772.17
2019-03-08T00:55:50.823Z,99775.20
2019-03-08T00:57:56.996Z,99773.68
2019-03-08T01:00:03.881Z,99773.07
2019-03-08T01:02:10.235Z,99766.81
2019-03-08T01:04:16.711Z,99761.99
2019-03-08T01:06:22.954Z,99768.77
2019-03-08T01:08:29.204Z,99770.41
2019-03-08T01:10:35.366Z,99769.21
2019-03-08T01:12:41.539Z,99780.23
2019-03-08T01:14:47.890Z,99779.34
2019-03-08T01:16:54.155Z,99783.42
2019-03-08T01:19:00.316Z,99782.34
2019-03-08T01:21:06.562Z,99790.48
2019-03-08T01:23:12.747Z,99788.43
2019-03-08T01:25:21.383Z,99778.81
2019-03-08T01:27:27.386Z,99778.44
2019-03-08T01:29:34.057Z,99773.89
2019-03-08T01:31:40.853Z,99773.72
2019-03-08T01:33:46.984Z,99772.56
2019-03-08T01:35:53.250Z,99766.67
2019-03-08T01:37:59.508Z,99765.36
2019-03-08T01:40:08.963Z,99767.86
2019-03-08T01:42:15.220Z,99763.31
2019-03-08T01:44:21.704Z,99756.03
2019-03-08T01:46:28.038Z,99753.09
2019-03-08T01:48:34.289Z,99753.98
2019-03-08T01:50:41.166Z,99742.63
2019-03-08T01:52:48.042Z,99744.61
2019-03-08T01:54:54.109Z,99739.67
2019-03-08T01:57:00.463Z,99739.83
2019-03-08T01:59:06.724Z,99737.18
2019-03-08T02:01:12.886Z,99740.46
2019-03-08T02:03:19.047Z,99745.80
2019-03-08T02:05:25.302Z,99741.33
2019-03-08T02:07:33.192Z,99744.25
2019-03-08T02:09:39.448Z,99735.85
2019-03-08T02:11:46.012Z,99738.80
2019-03-08T02:13:52.292Z,99737.05
2019-03-08T02:15:58.531Z,99744.88
2019-03-08T02:18:05.007Z,99740.45
2019-03-08T02:20:15.102Z,99732.91
2019-03-08T02:22:21.416Z,99731.07
2019-03-08T02:24:27.681Z,99735.18
2019-03-08T02:26:34.264Z,99730.06
2019-03-08T02:28:40.525Z,99725.52
2019-03-08T02:30:46.689Z,99725.22
2019-03-08T02:32:52.922Z,99726.52
2019-03-08T02:34:59.089Z,99722.50
2019-03-08T02:37:06.809Z,99724.48
2019-03-08T02:39:13.250Z,99719.70
2019-03-08T02:41:19.813Z,99724.36
2019-03-08T02:43:26.083Z,99715.33
2019-03-08T02:45:32.232Z,99712.72
2019-03-08T02:47:38.493Z,99716.00
2019-03-08T02:49:44.752Z,99711.75
2019-03-08T02:51:50.899Z,99718.77
2019-03-08T02:53:57.075Z,99718.84
2019-03-08T02:56:03.324Z,99720.55
2019-03-08T02:58:09.475Z,99710.81
2019-03-08T03:00:19.017Z,99715.36
2019-03-08T03:02:25.270Z,99719.84
2019-03-08T03:04:31.548Z,99716.23
2019-03-08T03:06:37.895Z,99707.42
2019-03-08T03:08:44.064Z,99708.12
2019-03-08T03:10:50.228Z,99712.88
2019-03-08T03:12:56.381Z,99706.30
2019-03-08T03:15:02.640Z,99711.53
2019-03-08T03:17:09.096Z,99706.41
2019-03-08T03:19:15.259Z,99704.77
2019-03-08T03:21:21.518Z,99714.84
2019-03-08T03:23:27.773Z,99703.47
2019-03-08T03:25:34.051Z,99716.97
2019-03-08T03:27:40.300Z,99715.37
2019-03-08T03:29:46.573Z,99712.53
2019-03-08T03:31:52.833Z,99715.25
2019-03-08T03:33:59.583Z,99709.95
2019-03-08T03:36:05.939Z,99714.80
2019-03-08T03:38:12.234Z,99711.86
2019-03-08T03:40:20.726Z,99709.84
2019-03-08T03:42:26.985Z,99719.39
2019-03-08T03:44:33.354Z,99728.01
2019-03-08T03:46:39.609Z,99725.39
2019-03-08T03:48:45.868Z,99732.44
2019-03-08T03:50:52.330Z,99730.94
2019-03-08T03:52:58.598Z,99723.59
2019-03-08T03:55:06.673Z,99727.13
2019-03-08T03:57:12.952Z,99719.68
2019-03-08T03:59:19.012Z,99720.13
2019-03-08T04:01:26.912Z,99726.87
2019-03-08T04:03:33.184Z,99717.17
2019-03-08T04:05:39.331Z,99719.41
2019-03-08T04:07:45.595Z,99717.03
2019-03-08T04:09:51.848Z,99717.48
2019-03-08T04:11:59.039Z,99710.76
2019-03-08T04:14:05.305Z,99706.20
2019-03-08T04:16:11.555Z,99710.18
2019-03-08T04:18:17.803Z,99708.70
2019-03-08T04:20:23.956Z,99710.41
2019-03-08T04:22:30.107Z,99714.22
2019-03-08T04:24:36.487Z,99726.94
2019-03-08T04:26:42.736Z,99714.84
2019-03-08T04:28:49.318Z,99721.45
2019-03-08T04:30:55.589Z,99721.82
2019-03-08T04:33:01.721Z,99712.17
2019-03-08T04:35:08.301Z,99707.84
2019-03-08T04:37:14.444Z,99704.44
2019-03-08T04:39:20.634Z,99713.61
2019-03-08T04:41:26.991Z,99707.27
2019-03-08T04:43:33.392Z,99704.59
2019-03-08T04:45:41.172Z,99714.78
2019-03-08T04:47:47.932Z,99705.00
2019-03-08T04:49:54.480Z,99702.84
2019-03-08T04:52:01.974Z,99709.13
2019-03-08T04:54:08.119Z,99707.58
2019-03-08T04:56:14.683Z,99704.26
2019-03-08T04:58:20.851Z,99699.66
2019-03-08T05:00:27.090Z,99707.38
2019-03-08T05:02:33.269Z,99706.56
2019-03-08T05:04:39.524Z,99694.38
2019-03-08T05:06:45.788Z,99692.48
2019-03-08T05:08:52.258Z,99691.21
2019-03-08T05:10:58.401Z,99693.03
2019-03-08T05:13:04.566Z,99687.84
2019-03-08T05:15:11.420Z,99692.42
2019-03-08T05:17:18.823Z,99684.31
2019-03-08T05:19:24.993Z,99681.77
2019-03-08T05:21:31.259Z,99675.31
2019-03-08T05:23:37.513Z,99673.90
2019-03-08T05:25:43.672Z,99669.73
2019-03-08T05:27:49.934Z,99674.10
2019-03-08T05:29:56.082Z,99675.59
2019-03-08T05:32:02.124Z,99674.08
2019-03-08T05:34:08.303Z,99680.48
2019-03-08T05:36:14.553Z,99676.20
2019-03-08T05:38:20.718Z,99674.93
2019-03-08T05:40:26.878Z,99668.73
2019-03-08T05:42:33.044Z,99668.09
2019-03-08T05:44:39.085Z,99663.22
2019-03-08T05:46:45.251Z,99667.58
2019-03-08T05:48:51.698Z,99666.05
2019-03-08T05:50:57.877Z,99669.19
2019-03-08T05:53:04.233Z,99656.92
2019-03-08T05:55:12.195Z,99669.14
2019-03-08T05:57:18.376Z,99660.79
2019-03-08T05:59:24.660Z,99662.09
2019-03-08T06:01:31.036Z,99661.12
2019-03-08T06:03:37.256Z,99656.31
2019-03-08T06:05:43.333Z,99658.81
2019-03-08T06:07:49.492Z,99654.89
2019-03-08T06:09:55.648Z,99652.70
2019-03-08T06:12:01.906Z,99654.18
2019-03-08T06:14:08.470Z,99648.28
2019-03-08T06:16:15.708Z,99646.70
2019-03-08T06:18:24.491Z,99652.99
2019-03-08T06:20:35.306Z,99642.64
2019-03-08T06:22:45.105Z,99642.48
2019-03-08T06:24:53.002Z,99642.23
2019-03-08T06:27:03.679Z,99648.74
2019-03-08T06:29:12.969Z,99644.66
2019-03-08T06:31:19.338Z,99661.08
2019-03-08T06:33:31.529Z,99654.70
2019-03-08T06:35:37.810Z,99650.13
2019-03-08T06:37:47.668Z,99640.15
2019-03-08T06:39:54.028Z,99645.03
2019-03-08T06:42:00.279Z,99656.25
2019-03-08T06:44:06.539Z,99658.89
2019-03-08T06:46:13.093Z,99673.61
2019-03-08T06:48:19.361Z,99647.13
2019-03-08T06:50:25.627Z,99644.38
2019-03-08T06:52:31.902Z,99640.86
2019-03-08T06:54:39.676Z,99640.73
2019-03-08T06:56:45.818Z,99641.38
2019-03-08T06:58:54.041Z,99634.59
2019-03-08T07:01:00.102Z,99646.56
2019-03-08T07:03:09.030Z,99648.19
2019-03-08T07:05:15.398Z,99645.44
2019-03-08T07:07:21.638Z,99639.30
2019-03-08T07:09:27.916Z,99638.12
2019-03-08T07:11:34.176Z,99632.60
2019-03-08T07:13:41.013Z,99629.70
2019-03-08T07:15:47.184Z,99629.83
2019-03-08T07:17:53.346Z,99626.53
2019-03-08T07:20:01.159Z,99640.30
2019-03-08T07:22:09.159Z,99624.43
2019-03-08T07:24:16.957Z,99631.70
2019-03-08T07:26:36.918Z,99636.85
2019-03-08T07:28:57.937Z,99629.79
2019-03-08T07:31:12.779Z,99621.64
2019-03-08T07:33:20.403Z,99622.67
2019-03-08T07:35:37.380Z,99630.70
2019-03-08T07:38:01.080Z,99631.02
2019-03-08T07:40:11.316Z,99626.02
2019-03-08T07:42:21.586Z,99628.50
2019-03-08T07:44:27.546Z,99620.95
2019-03-08T07:46:35.316Z,99626.23
2019-03-08T07:48:55.193Z,99631.73
2019-03-08T07:51:07.097Z,99618.84
2019-03-08T07:53:20.646Z,99608.84
2019-03-08T07:55:46.395Z,99607.58
2019-03-08T07:58:03.884Z,99620.48
2019-03-08T08:00:20.790Z,99614.78
2019-03-08T08:02:34.319Z,99628.55
2019-03-08T08:04:42.022Z,99627.14
2019-03-08T08:06:49.794Z,99629.23
2019-03-08T08:08:58.736Z,99637.75
2019-03-08T08:11:07.656Z,99626.25
2019-03-08T08:13:30.913Z,99628.47
2019-03-08T08:15:56.126Z,99631.04
2019-03-08T08:18:06.786Z,99639.76
2019-03-08T08:20:16.578Z,99646.55
2019-03-08T08:22:40.563Z,99637.98
2019-03-08T08:24:51.047Z,99630.17
2019-03-08T08:27:02.834Z,99636.95
2019-03-08T08:29:21.175Z,99640.96
2019-03-08T08:31:32.156Z,99628.14
2019-03-08T08:33:45.896Z,99628.97
2019-03-08T08:36:08.608Z,99618.26
2019-03-08T08:38:32.355Z,99646.70
2019-03-08T08:40:56.253Z,99620.36
2019-03-08T08:43:02.137Z,99610.70
2019-03-08T08:45:20.030Z,99620.00
2019-03-08T08:47:47.365Z,99599.14
2019-03-08T08:49:55.462Z,99596.87
2019-03-08T08:52:08.158Z,99610.53
2019-03-08T08:54:25.560Z,99602.87
2019-03-08T08:56:50.254Z,99621.73
2019-03-08T08:59:02.369Z,99590.52
2019-03-08T09:01:29.617Z,99588.18
2019-03-08T09:03:53.549Z,99610.53
2019-03-08T09:06:10.951Z,99599.36
2019-03-08T09:08:20.045Z,99590.80
2019-03-08T09:10:27.759Z,99606.23
2019-03-08T09:12:40.327Z,99593.81
2019-03-08T09:14:48.115Z,99593.95
2019-03-08T09:16:58.637Z,99600.61
2019-03-08T09:19:17.144Z,99606.44
2019-03-08T09:21:25.833Z,99594.16
2019-03-08T09:23:40.709Z,99608.27
2019-03-08T09:25:48.612Z,99612.09
2019-03-08T09:28:12.474Z,99621.02
2019-03-08T09:30:27.754Z,99629.33
2019-03-08T09:32:58.955Z,99624.95
2019-03-08T09:35:02.283Z,99627.00
2019-03-08T09:37:22.988Z,99637.58
2019-03-08T09:39:33.854Z,99639.12
2019-03-08T09:41:55.676Z,99631.83
2019-03-08T09:44:05.030Z,99662.30
2019-03-08T09:46:19.033Z,99636.34
2019-03-08T09:48:26.753Z,99635.95
2019-03-08T09:50:44.762Z,99647.11
2019-03-08T09:52:56.687Z,99644.61
2019-03-08T09:55:07.440Z,99666.27
2019-03-08T09:57:19.238Z,99650.97
2019-03-08T09:59:28.463Z,99652.27
2019-03-08T10:01:52.646Z,99640.58
2019-03-08T10:04:07.606Z,99651.56
2019-03-08T10:06:21.356Z,99647.83
2019-03-08T10:08:41.440Z,99648.22
2019-03-08T10:10:47.247Z,99643.19
2019-03-08T10:13:12.972Z,99651.63
2019-03-08T10:15:35.738Z,99649.36
2019-03-08T10:17:58.786Z,99651.08
2019-03-08T10:20:25.028Z,99656.53
2019-03-08T10:22:38.555Z,99651.31
2019-03-08T10:24:55.454Z,99646.27
2019-03-08T10:27:19.222Z,99658.92
2019-03-08T10:29:27.013Z,99646.72
2019-03-08T10:31:34.714Z,99666.05
2019-03-08T10:33:59.209Z,99653.33
2019-03-08T10:36:07.804Z,99668.28
2019-03-08T10:38:22.398Z,99657.83
2019-03-08T10:40:38.168Z,99633.22
2019-03-08T10:42:45.964Z,99653.00
2019-03-08T10:44:56.795Z,99639.96
2019-03-08T10:47:21.516Z,99648.97
2019-03-08T10:49:33.414Z,99656.11
2019-03-08T10:51:48.063Z,99664.55
2019-03-08T10:54:00.638Z,99677.14
2019-03-08T10:56:10.122Z,99661.64
2019-03-08T10:58:17.911Z,99660.55
2019-03-08T11:00:34.724Z,99664.28
2019-03-08T11:02:49.757Z,99665.13
2019-03-08T11:05:03.613Z,99668.03
2019-03-08T11:07:29.756Z,99686.17
2019-03-08T11:09:44.550Z,99696.33
2019-03-08T11:11:55.352Z,99695.87
2019-03-08T11:14:11.865Z,99691.23
2019-03-08T11:16:19.666Z,99700.08
2019-03-08T11:18:43.667Z,99710.59
2019-03-08T11:20:58.806Z,99702.38
2019-03-08T11:23:21.573Z,99694.42
2019-03-08T11:25:35.414Z,99705.63
2019-03-08T11:27:52.767Z,99719.39
2019-03-08T11:30:00.811Z,99709.17
2019-03-08T11:32:22.769Z,99713.97
2019-03-08T11:34:28.611Z,99713.97
2019-03-08T11:36:40.977Z,99723.77
2019-03-08T11:38:51.860Z,99702.88
2019-03-08T11:41:13.031Z,99735.15
2019-03-08T11:43:27.238Z,99722.36
2019-03-08T11:45:40.677Z,99729.75
2019-03-08T11:47:49.463Z,99733.63
2019-03-08T11:50:02.722Z,99745.66
2019-03-08T11:52:19.713Z,99736.78
2019-03-08T11:54:29.565Z,99733.63
2019-03-08T11:56:55.651Z,99744.75
2019-03-08T11:59:12.557Z,99733.22
2019-03-08T12:01:38.313Z,99728.30
2019-03-08T12:03:58.073Z,99727.95
2019-03-08T12:06:13.055Z,99736.23
2019-03-08T12:08:31.230Z,99719.98
2019-03-08T12:10:37.146Z,99719.83
2019-03-08T12:12:46.523Z,99717.73
2019-03-08T12:14:52.636Z,99717.03
2019-03-08T12:17:06.474Z,99711.41
2019-03-08T12:19:30.351Z,99706.52
2019-03-08T12:21:54.527Z,99709.87
2019-03-08T12:24:08.353Z,99712.27
2019-03-08T12:26:16.151Z,99729.75
2019-03-08T12:28:36.154Z,99722.25
2019-03-08T12:30:43.882Z,99711.94
2019-03-08T12:33:00.518Z,99733.87
2019-03-08T12:35:14.897Z,99726.94
2019-03-08T12:37:22.707Z,99727.56
2019-03-08T12:39:30.476Z,99736.41
2019-03-08T12:44:14.126Z,99738.63
2019-03-08T12:46:21.930Z,99753.00
2019-03-08T12:48:46.497Z,99758.81
2019-03-08T12:51:12.235Z,99761.37
2019-03-08T12:53:27.089Z,99766.69
2019-03-08T12:55:37.467Z,99756.11
2019-03-08T12:57:52.327Z,99777.45
2019-03-08T13:00:00.338Z,99763.16
2019-03-08T13:02:26.240Z,99769.81
2019-03-08T13:04:37.721Z,99762.52
2019-03-08T13:06:45.476Z,99747.13
2019-03-08T13:08:53.194Z,99764.00
2019-03-08T13:10:59.376Z,99760.97
2019-03-08T13:13:05.627Z,99751.77
2019-03-08T13:15:15.753Z,99753.38
2019-03-08T13:17:21.795Z,99762.91
2019-03-08T13:19:27.997Z,99753.91
2019-03-08T13:21:34.314Z,99766.38
2019-03-08T13:23:40.489Z,99761.22
2019-03-08T13:25:46.668Z,99764.55
2019-03-08T13:27:53.046Z,99762.34
2019-03-08T13:29:59.283Z,99776.74
2019-03-08T13:32:05.941Z,99778.42
2019-03-08T13:34:12.118Z,99780.13
2019-03-08T13:36:18.383Z,99767.27
2019-03-08T13:38:24.527Z,99783.16
2019-03-08T13:40:30.716Z,99777.56
2019-03-08T13:42:36.968Z,99788.42
2019-03-08T13:44:43.145Z,99789.56
2019-03-08T13:46:49.341Z,99778.35
2019-03-08T13:48:55.550Z,99798.20
2019-03-08T13:51:01.721Z,99799.41
2019-03-08T13:53:08.161Z,99821.13
2019-03-08T13:55:18.606Z,99813.39
2019-03-08T13:57:24.713Z,99832.41
2019-03-08T13:59:30.852Z,99834.50
2019-03-08T14:01:38.486Z,99830.19
2019-03-08T14:03:44.806Z,99839.45
2019-03-08T14:05:51.348Z,99832.55
2019-03-08T14:07:57.629Z,99849.58
2019-03-08T14:10:05.028Z,99824.36
2019-03-08T14:12:11.455Z,99837.05
2019-03-08T14:14:17.736Z,99847.06
2019-03-08T14:16:24.187Z,99844.32
2019-03-08T14:18:30.557Z,99843.27
2019-03-08T14:20:36.926Z,99852.02
2019-03-08T14:22:43.199Z,99856.45
2019-03-08T14:24:49.740Z,99856.45
2019-03-08T14:26:55.914Z,99880.29
2019-03-08T14:29:01.998Z,99878.55
2019-03-08T14:31:15.800Z,99881.38
2019-03-08T14:33:22.076Z,99891.57
2019-03-08T14:35:29.665Z,99893.43
2019-03-08T14:37:36.410Z,99899.82
2019-03-08T14:39:44.305Z,99915.68
2019-03-08T14:42:03.784Z,99906.41
2019-03-08T14:44:13.868Z,99910.54
2019-03-08T14:46:22.170Z,99912.30
2019-03-08T14:48:30.075Z,99919.33
2019-03-08T14:50:37.077Z,99923.20
2019-03-08T14:52:43.389Z,99929.23
2019-03-08T14:54:49.647Z,99930.08
2019-03-08T14:56:55.907Z,99938.95
2019-03-08T14:59:02.067Z,99939.46
2019-03-08T15:01:08.328Z,99944.62
2019-03-08T15:03:15.518Z,99954.39
2019-03-08T15:05:21.974Z,99959.70
2019-03-08T15:07:29.134Z,99958.11
2019-03-08T15:09:35.783Z,99960.69
2019-03-08T15:11:42.197Z,99973.86
2019-03-08T15:13:48.441Z,99976.56
2019-03-08T15:15:58.035Z,99990.67
2019-03-08T15:18:03.408Z,99987.78
2019-03-08T15:20:18.803Z,100002.53
2019-03-08T15:22:25.559Z,100021.03
2019-03-08T15:24:38.378Z,100007.91
2019-03-08T15:26:40.495Z,100020.25
2019-03-08T15:28:46.696Z,100006.00
2019-03-08T15:30:54.037Z,100031.16
2019-03-08T15:33:01.703Z,100039.00
2019-03-08T15:35:11.206Z,100033.16
2019-03-08T15:37:17.367Z,100047.88
2019-03-08T15:39:23.525Z,100049.84
2019-03-08T15:41:29.594Z,100043.00
2019-03-08T15:43:36.997Z,100053.62
2019-03-08T15:45:46.145Z,100062.13
2019-03-08T15:47:52.583Z,100077.17
2019-03-08T15:49:58.980Z,100065.09
2019-03-08T15:52:05.533Z,100077.33
2019-03-08T15:54:12.568Z,100075.69
2019-03-08T15:56:19.558Z,100082.77
2019-03-08T15:58:26.013Z,100088.91
2019-03-08T16:00:33.544Z,100094.69
2019-03-08T16:02:39.676Z,100106.85
2019-03-08T16:04:50.056Z,100098.20
2019-03-08T16:06:56.482Z,100103.11
2019-03-08T16:09:02.605Z,100117.53
2019-03-08T16:11:10.138Z,100111.87
2019-03-08T16:13:16.608Z,100117.57
2019-03-08T16:15:23.043Z,100138.66
2019-03-08T16:17:29.206Z,100133.97
2019-03-08T16:19:37.011Z,100141.20
2019-03-08T16:21:46.676Z,100151.53
2019-03-08T16:23:51.816Z,100155.28
2019-03-08T16:25:58.885Z,100160.37
2019-03-08T16:28:06.765Z,100166.06
2019-03-08T16:30:47.620Z,100167.59
2019-03-08T16:33:06.386Z,100178.17
2019-03-08T16:35:12.383Z,100177.59
2019-03-08T16:37:21.371Z,100186.14
2019-03-08T16:39:28.961Z,100192.80
2019-03-08T16:41:49.954Z,100202.58
2019-03-08T16:44:10.461Z,100199.69
2019-03-08T16:46:34.857Z,100211.44
2019-03-08T16:48:55.966Z,100215.84
2019-03-08T16:51:23.122Z,100220.63
2019-03-08T16:53:48.735Z,100225.97
2019-03-08T16:56:10.745Z,100235.58
2019-03-08T16:58:21.316Z,100246.80
2019-03-08T17:00:44.584Z,100244.70
2019-03-08T17:02:53.318Z,100256.36
2019-03-08T17:05:01.297Z,100255.95
2019-03-08T17:07:25.159Z,100257.87
2019-03-08T17:09:35.761Z,100263.34
2019-03-08T17:11:48.347Z,100277.22
2019-03-08T17:13:57.851Z,100284.48
2019-03-08T17:16:08.843Z,100289.16
2019-03-08T17:18:34.868Z,100300.42
2019-03-08T17:20:59.250Z,100312.04
2019-03-08T17:23:17.508Z,100312.91
2019-03-08T17:25:34.495Z,100319.05
2019-03-08T17:27:58.199Z,100321.70
2019-03-08T17:30:07.811Z,100324.91
2019-03-08T17:32:24.545Z,100332.56
2019-03-08T17:34:30.731Z,100334.23
2019-03-08T17:36:44.600Z,100340.00
2019-03-08T17:38:54.870Z,100340.78
2019-03-08T17:41:11.434Z,100349.78
2019-03-08T17:43:19.564Z,100360.16
2019-03-08T17:45:43.762Z,100358.43
2019-03-08T17:48:07.141Z,100378.46
2019-03-08T17:50:32.034Z,100385.72
2019-03-08T17:52:41.515Z,100377.84
2019-03-08T17:54:55.293Z,100382.65
2019-03-08T17:57:09.954Z,100382.92
2019-03-08T17:59:18.160Z,100392.09
2019-03-08T18:01:32.080Z,100393.37
2019-03-08T18:03:41.225Z,100399.08
2019-03-08T18:05:54.967Z,100403.92
2019-03-08T18:08:02.734Z,100404.03
2019-03-08T18:10:10.363Z,100415.83
2019-03-08T18:12:36.499Z,100418.50
2019-03-08T18:14:49.619Z,100413.88
2019-03-08T18:16:58.934Z,100420.97
2019-03-08T18:19:25.375Z,100426.36
2019-03-08T18:21:33.599Z,100429.98
2019-03-08T18:23:48.119Z,100430.86
2019-03-08T18:25:56.318Z,100442.57
2019-03-08T18:28:22.351Z,100441.32
2019-03-08T18:30:34.962Z,100440.53
2019-03-08T18:32:54.212Z,100451.17
2019-03-08T18:35:11.237Z,100443.93
2019-03-08T18:37:22.302Z,100452.78
2019-03-08T18:39:31.135Z,100454.19
2019-03-08T18:41:48.448Z,100455.99
2019-03-08T18:43:56.658Z,100463.83
2019-03-08T18:46:08.649Z,100476.45
2019-03-08T18:48:16.655Z,100479.93
2019-03-08T18:50:25.056Z,100476.02
2019-03-08T18:52:49.337Z,100482.14
2019-03-08T18:54:57.568Z,100485.33
2019-03-08T18:57:05.762Z,100489.39
2019-03-08T18:59:13.780Z,100499.53
2019-03-08T19:01:38.458Z,100506.51
2019-03-08T19:03:49.421Z,100499.20
2019-03-08T19:06:04.740Z,100503.98
2019-03-08T19:08:20.727Z,100510.60
2019-03-08T19:10:31.956Z,100512.05
2019-03-08T19:12:46.738Z,100517.34
2019-03-08T19:14:59.053Z,100525.36
2019-03-08T19:17:25.637Z,100527.90
2019-03-08T19:19:33.868Z,100529.64
2019-03-08T19:21:49.316Z,100533.62
2019-03-08T19:24:03.271Z,100536.37
2019-03-08T19:26:17.297Z,100542.03
2019-03-08T19:28:38.526Z,100537.27
2019-03-08T19:30:46.703Z,100544.23
2019-03-08T19:33:11.020Z,100551.23
2019-03-08T19:35:36.324Z,100549.42
2019-03-08T19:38:03.486Z,100556.47
2019-03-08T19:40:16.358Z,100561.80
2019-03-08T19:42:26.144Z,100569.77
2019-03-08T19:44:53.838Z,100572.52
2019-03-08T19:47:18.505Z,100573.56
2019-03-08T19:49:34.007Z,100579.34
2019-03-08T19:51:54.579Z,100574.61
2019-03-08T19:54:12.011Z,100585.11
2019-03-08T19:56:36.488Z,100589.08
2019-03-08T19:58:47.946Z,100591.27
2019-03-08T20:00:58.446Z,100590.77
2019-03-08T20:03:09.935Z,100593.92
2019-03-08T20:05:21.177Z,100598.44
2019-03-08T20:07:41.778Z,100603.40
2019-03-08T20:09:53.478Z,100607.04
2019-03-08T20:12:17.348Z,100608.05
2019-03-08T20:14:39.062Z,100618.11
2019-03-08T20:16:47.270Z,100626.92
2019-03-08T20:19:04.604Z,100629.11
2019-03-08T20:21:12.720Z,100633.52
2019-03-08T20:23:38.009Z,100636.21
2019-03-08T20:25:49.280Z,100634.96
2019-03-08T20:27:57.582Z,100634.57
2019-03-08T20:30:12.638Z,100637.61
2019-03-08T20:32:23.399Z,100646.30
2019-03-08T20:34:36.527Z,100643.34
2019-03-08T20:36:47.513Z,100652.07
2019-03-08T20:38:53.721Z,100648.61
2019-03-08T20:41:06.560Z,100652.12
2019-03-08T20:43:14.739Z,100655.28
2019-03-08T20:45:39.585Z,100658.36
2019-03-08T20:47:47.758Z,100663.69
2019-03-08T20:49:56.156Z,100662.03
2019-03-08T20:52:02.834Z,100663.34
2019-03-08T20:54:09.435Z,100672.45
2019-03-08T20:56:15.978Z,100670.72
2019-03-08T20:58:22.559Z,100668.19
2019-03-08T21:00:29.197Z,100677.34
2019-03-08T21:02:35.357Z,100681.28
2019-03-08T21:05:00.319Z,100680.48
2019-03-08T21:07:09.119Z,100681.85
2019-03-08T21:09:15.887Z,100678.45
2019-03-08T21:11:24.505Z,100679.39
2019-03-08T21:13:30.688Z,100689.02
2019-03-08T21:15:37.226Z,100685.62
2019-03-08T21:17:43.978Z,100691.28
2019-03-08T21:19:53.116Z,100699.48
2019-03-08T21:21:59.411Z,100705.95
2019-03-08T21:24:06.048Z,100704.69
2019-03-08T21:26:12.825Z,100704.28
2019-03-08T21:28:19.640Z,100703.39
2019-03-08T21:30:27.386Z,100708.63
2019-03-08T21:32:34.545Z,100703.88
2019-03-08T21:34:40.994Z,100706.11
2019-03-08T21:36:47.704Z,100709.62
2019-03-08T21:38:55.580Z,100707.91
2019-03-08T21:41:05.882Z,100712.73
2019-03-08T21:43:14.397Z,100712.79
2019-03-08T21:45:22.391Z,100722.70
2019-03-08T21:47:28.938Z,100725.73
2019-03-08T21:49:35.516Z,100722.70
2019-03-08T21:51:41.962Z,100724.84
2019-03-08T21:53:49.488Z,100731.37
2019-03-08T21:55:56.853Z,100730.02
2019-03-08T21:58:04.371Z,100728.75
2019-03-08T22:00:26.084Z,100734.84
2019-03-08T22:02:32.832Z,100736.19
2019-03-08T22:04:42.838Z,100736.64
2019-03-08T22:06:50.962Z,100736.66
2019-03-08T22:09:12.712Z,100734.95
2019-03-08T22:11:20.692Z,100733.23
2019-03-08T22:13:26.848Z,100743.65
2019-03-08T22:15:33.032Z,100742.81
2019-03-08T22:17:39.393Z,100746.75
2019-03-08T22:19:46.731Z,100748.04
2019-03-08T22:21:55.301Z,100748.06
2019-03-08T22:24:01.762Z,100749.34
2019-03-08T22:26:08.930Z,100756.72
2019-03-08T22:28:15.201Z,100755.02
2019-03-08T22:30:22.691Z,100761.94
2019-03-08T22:32:29.158Z,100763.69
2019-03-08T22:34:35.496Z,100761.11
2019-03-08T22:36:41.790Z,100768.03
2019-03-08T22:38:48.020Z,100777.56
2019-03-08T22:40:54.600Z,100779.73
2019-03-08T22:43:00.991Z,100779.77
2019-03-08T22:45:12.653Z,100775.02
2019-03-08T22:47:18.925Z,100775.95
2019-03-08T22:49:25.130Z,100776.41
2019-03-08T22:51:31.634Z,100782.03
2019-03-08T22:53:38.405Z,100773.38
2019-03-08T22:55:45.472Z,100774.72
2019-03-08T22:57:53.063Z,100775.58
2019-03-08T22:59:59.339Z,100777.77
2019-03-08T23:02:08.652Z,100785.55
2019-03-08T23:04:14.941Z,100780.80
2019-03-08T23:06:21.293Z,100779.53
2019-03-08T23:08:27.544Z,100782.55
2019-03-08T23:10:34.440Z,100782.57
2019-03-08T23:12:40.965Z,100784.75
2019-03-08T23:14:47.352Z,100784.74
2019-03-08T23:16:53.817Z,100787.32
2019-03-08T23:19:00.038Z,100791.21
2019-03-08T23:21:06.233Z,100794.67
2019-03-08T23:23:12.488Z,100791.67
2019-03-08T23:25:19.544Z,100795.98
2019-03-08T23:27:28.152Z,100789.94
2019-03-08T23:29:35.979Z,100800.72
2019-03-08T23:31:55.563Z,100799.87
2019-03-08T23:34:02.852Z,100793.82
2019-03-08T23:36:09.241Z,100789.48
2019-03-08T23:38:15.685Z,100795.55
2019-03-08T23:40:21.848Z,100791.64
2019-03-08T23:42:28.093Z,100794.66
2019-03-08T23:44:34.353Z,100786.03
2019-03-08T23:46:40.799Z,100791.23
2019-03-08T23:48:47.177Z,100783.88
2019-03-08T23:50:53.333Z,100787.33
2019-03-08T23:52:59.792Z,100789.50
2019-03-08T23:55:09.962Z,100789.49
2019-03-08T23:57:16.193Z,100783.87
2019-03-08T23:59:22.473Z,100789.07
